Terminal Aerodrome Forecast
Issued by NWS Twin Cities, MN

Home | Current Version | Previous Version | Graphics & Text | Print | Product List | Glossary On
Versions: 1 2 3 4 5 6 7 8 9 10 11 12 13 14 15 16 17 18
000
FTUS43 KMPX 142300
TAFSTC
TAF
KSTC 142328Z 1500/1524 33014G20KT P6SM BKN060
     FM150200 32008KT P6SM FEW060
     FM150400 32005KT P6SM SKC
     FM152000 24006KT P6SM BKN150=

USA.gov is the U.S. government's official web portal to all federal, state and local government web resources and services.